sensor_id;sensor_type;location;lat;lon;timestamp;temperature;humidity
34766;DHT22;20984;43.508;1.504;2023-11-21T00:01:59;10.10;99.90
34766;DHT22;20984;43.508;1.504;2023-11-21T00:04:24;10.10;99.90
34766;DHT22;20984;43.508;1.504;2023-11-21T00:06:51;10.10;99.90
34766;DHT22;20984;43.508;1.504;2023-11-21T00:09:17;10.10;99.90
34766;DHT22;20984;43.508;1.504;2023-11-21T00:11:43;10.10;99.90
34766;DHT22;20984;43.508;1.504;2023-11-21T00:14:10;10.10;99.90
34766;DHT22;20984;43.508;1.504;2023-11-21T00:16:36;10.20;99.90
34766;DHT22;20984;43.508;1.504;2023-11-21T00:19:02;10.20;99.90
34766;DHT22;20984;43.508;1.504;2023-11-21T00:21:27;10.30;99.90
34766;DHT22;20984;43.508;1.504;2023-11-21T00:23:53;10.30;99.90
34766;DHT22;20984;43.508;1.504;2023-11-21T00:26:19;10.30;99.90
34766;DHT22;20984;43.508;1.504;2023-11-21T00:28:44;10.30;99.90
34766;DHT22;20984;43.508;1.504;2023-11-21T00:31:11;10.40;99.90
34766;DHT22;20984;43.508;1.504;2023-11-21T00:33:36;10.40;99.90
34766;DHT22;20984;43.508;1.504;2023-11-21T00:36:02;10.40;99.90
34766;DHT22;20984;43.508;1.504;2023-11-21T00:38:28;10.40;99.90
34766;DHT22;20984;43.508;1.504;2023-11-21T00:40:53;10.40;99.90
34766;DHT22;20984;43.508;1.504;2023-11-21T00:43:24;10.40;99.90
34766;DHT22;20984;43.508;1.504;2023-11-21T00:45:50;10.40;99.90
34766;DHT22;20984;43.508;1.504;2023-11-21T00:48:15;10.40;99.90
34766;DHT22;20984;43.508;1.504;2023-11-21T00:50:41;10.40;99.90
34766;DHT22;20984;43.508;1.504;2023-11-21T00:53:06;10.40;99.90
34766;DHT22;20984;43.508;1.504;2023-11-21T00:55:36;10.40;99.90
34766;DHT22;20984;43.508;1.504;2023-11-21T00:58:02;10.40;99.90
34766;DHT22;20984;43.508;1.504;2023-11-21T01:00:29;10.40;99.90
34766;DHT22;20984;43.508;1.504;2023-11-21T01:02:55;10.40;99.90
34766;DHT22;20984;43.508;1.504;2023-11-21T01:05:21;10.40;99.90
34766;DHT22;20984;43.508;1.504;2023-11-21T01:07:46;10.40;99.90
34766;DHT22;20984;43.508;1.504;2023-11-21T01:10:12;10.40;99.90
34766;DHT22;20984;43.508;1.504;2023-11-21T01:12:38;10.40;99.90
34766;DHT22;20984;43.508;1.504;2023-11-21T01:15:05;10.40;99.90
34766;DHT22;20984;43.508;1.504;2023-11-21T01:17:35;10.40;99.90
34766;DHT22;20984;43.508;1.504;2023-11-21T01:20:02;10.30;99.90
34766;DHT22;20984;43.508;1.504;2023-11-21T01:22:28;10.30;99.90
34766;DHT22;20984;43.508;1.504;2023-11-21T01:24:54;10.40;99.90
34766;DHT22;20984;43.508;1.504;2023-11-21T01:27:20;10.30;99.90
34766;DHT22;20984;43.508;1.504;2023-11-21T01:29:46;10.30;99.90
34766;DHT22;20984;43.508;1.504;2023-11-21T01:32:11;10.30;99.90
34766;DHT22;20984;43.508;1.504;2023-11-21T01:34:37;10.30;99.90
34766;DHT22;20984;43.508;1.504;2023-11-21T01:37:03;10.30;99.90
34766;DHT22;20984;43.508;1.504;2023-11-21T01:39:30;10.20;99.90
34766;DHT22;20984;43.508;1.504;2023-11-21T01:41:57;10.30;99.90
34766;DHT22;20984;43.508;1.504;2023-11-21T01:44:24;10.20;99.90
34766;DHT22;20984;43.508;1.504;2023-11-21T01:46:50;10.20;99.90
34766;DHT22;20984;43.508;1.504;2023-11-21T01:49:17;10.30;99.90
34766;DHT22;20984;43.508;1.504;2023-11-21T01:51:46;10.30;99.90
34766;DHT22;20984;43.508;1.504;2023-11-21T01:54:14;10.30;99.90
34766;DHT22;20984;43.508;1.504;2023-11-21T01:56:40;10.40;99.90
34766;DHT22;20984;43.508;1.504;2023-11-21T01:59:06;10.40;99.90
34766;DHT22;20984;43.508;1.504;2023-11-21T02:01:33;10.40;99.90
34766;DHT22;20984;43.508;1.504;2023-11-21T02:03:59;10.40;99.90
34766;DHT22;20984;43.508;1.504;2023-11-21T02:06:25;10.30;99.90
34766;DHT22;20984;43.508;1.504;2023-11-21T02:08:51;10.40;99.90
34766;DHT22;20984;43.508;1.504;2023-11-21T02:11:17;10.30;99.90
34766;DHT22;20984;43.508;1.504;2023-11-21T02:13:44;10.30;99.90
34766;DHT22;20984;43.508;1.504;2023-11-21T02:16:12;10.30;99.90
34766;DHT22;20984;43.508;1.504;2023-11-21T02:18:39;10.30;99.90
34766;DHT22;20984;43.508;1.504;2023-11-21T02:21:05;10.20;99.90
34766;DHT22;20984;43.508;1.504;2023-11-21T02:23:31;10.20;99.90
34766;DHT22;20984;43.508;1.504;2023-11-21T02:25:56;10.10;99.90
34766;DHT22;20984;43.508;1.504;2023-11-21T02:28:22;10.10;99.90
34766;DHT22;20984;43.508;1.504;2023-11-21T02:30:52;10.00;99.90
34766;DHT22;20984;43.508;1.504;2023-11-21T02:33:24;9.90;99.90
34766;DHT22;20984;43.508;1.504;2023-11-21T02:35:50;9.90;99.90
34766;DHT22;20984;43.508;1.504;2023-11-21T02:38:23;9.80;99.90
34766;DHT22;20984;43.508;1.504;2023-11-21T02:40:48;9.80;99.90
34766;DHT22;20984;43.508;1.504;2023-11-21T02:43:14;9.70;99.90
34766;DHT22;20984;43.508;1.504;2023-11-21T02:45:40;9.70;99.90
34766;DHT22;20984;43.508;1.504;2023-11-21T02:48:07;9.70;99.90
34766;DHT22;20984;43.508;1.504;2023-11-21T02:50:33;9.60;99.90
34766;DHT22;20984;43.508;1.504;2023-11-21T02:52:58;9.60;99.90
34766;DHT22;20984;43.508;1.504;2023-11-21T02:55:26;9.60;99.90
34766;DHT22;20984;43.508;1.504;2023-11-21T02:57:52;9.60;99.90
34766;DHT22;20984;43.508;1.504;2023-11-21T03:00:17;9.50;99.90
34766;DHT22;20984;43.508;1.504;2023-11-21T03:02:43;9.50;99.90
34766;DHT22;20984;43.508;1.504;2023-11-21T03:05:09;9.50;99.90
34766;DHT22;20984;43.508;1.504;2023-11-21T03:07:37;9.50;99.90
34766;DHT22;20984;43.508;1.504;2023-11-21T03:10:02;9.50;99.90
34766;DHT22;20984;43.508;1.504;2023-11-21T03:12:29;9.50;99.90
34766;DHT22;20984;43.508;1.504;2023-11-21T03:14:55;9.40;99.90
34766;DHT22;20984;43.508;1.504;2023-11-21T03:17:21;9.40;99.90
34766;DHT22;20984;43.508;1.504;2023-11-21T03:19:46;9.40;99.90
34766;DHT22;20984;43.508;1.504;2023-11-21T03:22:12;9.40;99.90
34766;DHT22;20984;43.508;1.504;2023-11-21T03:24:38;9.40;99.90
34766;DHT22;20984;43.508;1.504;2023-11-21T03:27:04;9.40;99.90
34766;DHT22;20984;43.508;1.504;2023-11-21T03:29:30;9.40;99.90
34766;DHT22;20984;43.508;1.504;2023-11-21T03:31:56;9.30;99.90
34766;DHT22;20984;43.508;1.504;2023-11-21T03:34:26;9.40;99.90
34766;DHT22;20984;43.508;1.504;2023-11-21T03:36:52;9.40;99.90
34766;DHT22;20984;43.508;1.504;2023-11-21T03:39:19;9.40;99.90
34766;DHT22;20984;43.508;1.504;2023-11-21T03:41:45;9.50;99.90
34766;DHT22;20984;43.508;1.504;2023-11-21T03:44:11;9.50;99.90
34766;DHT22;20984;43.508;1.504;2023-11-21T03:46:36;9.60;99.90
34766;DHT22;20984;43.508;1.504;2023-11-21T03:49:02;9.60;99.90
34766;DHT22;20984;43.508;1.504;2023-11-21T03:51:28;9.60;99.90
34766;DHT22;20984;43.508;1.504;2023-11-21T03:53:53;9.60;99.90
34766;DHT22;20984;43.508;1.504;2023-11-21T03:56:19;9.60;99.90
34766;DHT22;20984;43.508;1.504;2023-11-21T03:58:47;9.50;99.90
34766;DHT22;20984;43.508;1.504;2023-11-21T04:01:23;9.60;99.90
34766;DHT22;20984;43.508;1.504;2023-11-21T04:03:50;9.50;99.90
34766;DHT22;20984;43.508;1.504;2023-11-21T04:06:16;9.50;99.90
34766;DHT22;20984;43.508;1.504;2023-11-21T04:08:43;9.40;99.90
34766;DHT22;20984;43.508;1.504;2023-11-21T04:11:10;9.40;99.90
34766;DHT22;20984;43.508;1.504;2023-11-21T04:13:38;9.40;99.90
34766;DHT22;20984;43.508;1.504;2023-11-21T04:16:05;9.30;99.90
34766;DHT22;20984;43.508;1.504;2023-11-21T04:18:31;9.30;99.90
34766;DHT22;20984;43.508;1.504;2023-11-21T04:20:57;9.30;99.90
34766;DHT22;20984;43.508;1.504;2023-11-21T04:23:22;9.30;99.90
34766;DHT22;20984;43.508;1.504;2023-11-21T04:25:48;9.30;99.90
34766;DHT22;20984;43.508;1.504;2023-11-21T04:28:14;9.30;99.90
34766;DHT22;20984;43.508;1.504;2023-11-21T04:30:39;9.20;99.90
34766;DHT22;20984;43.508;1.504;2023-11-21T04:33:06;9.20;99.90
34766;DHT22;20984;43.508;1.504;2023-11-21T04:35:33;9.20;99.90
34766;DHT22;20984;43.508;1.504;2023-11-21T04:37:58;9.10;99.90
34766;DHT22;20984;43.508;1.504;2023-11-21T04:40:25;9.10;99.90
34766;DHT22;20984;43.508;1.504;2023-11-21T04:42:52;9.10;99.90
34766;DHT22;20984;43.508;1.504;2023-11-21T04:45:18;9.10;99.90
34766;DHT22;20984;43.508;1.504;2023-11-21T04:47:43;9.00;99.90
34766;DHT22;20984;43.508;1.504;2023-11-21T04:50:09;9.00;99.90
34766;DHT22;20984;43.508;1.504;2023-11-21T04:52:35;9.10;99.90
34766;DHT22;20984;43.508;1.504;2023-11-21T04:55:00;9.10;99.90
34766;DHT22;20984;43.508;1.504;2023-11-21T04:57:27;9.10;99.90
34766;DHT22;20984;43.508;1.504;2023-11-21T04:59:54;9.10;99.90
34766;DHT22;20984;43.508;1.504;2023-11-21T05:02:19;9.10;99.90
34766;DHT22;20984;43.508;1.504;2023-11-21T05:04:47;9.10;99.90
34766;DHT22;20984;43.508;1.504;2023-11-21T05:07:12;9.10;99.90
34766;DHT22;20984;43.508;1.504;2023-11-21T05:09:44;9.20;99.90
34766;DHT22;20984;43.508;1.504;2023-11-21T05:12:12;9.20;99.90
34766;DHT22;20984;43.508;1.504;2023-11-21T05:14:38;9.20;99.90
34766;DHT22;20984;43.508;1.504;2023-11-21T05:17:04;9.20;99.90
34766;DHT22;20984;43.508;1.504;2023-11-21T05:19:29;9.20;99.90
34766;DHT22;20984;43.508;1.504;2023-11-21T05:21:55;9.20;99.90
34766;DHT22;20984;43.508;1.504;2023-11-21T05:24:21;9.30;99.90
34766;DHT22;20984;43.508;1.504;2023-11-21T05:26:46;9.30;99.90
34766;DHT22;20984;43.508;1.504;2023-11-21T05:29:12;9.30;99.90
34766;DHT22;20984;43.508;1.504;2023-11-21T05:31:37;9.30;99.90
34766;DHT22;20984;43.508;1.504;2023-11-21T05:34:04;9.40;99.90
34766;DHT22;20984;43.508;1.504;2023-11-21T05:36:30;9.40;99.90
34766;DHT22;20984;43.508;1.504;2023-11-21T05:38:56;9.40;99.90
34766;DHT22;20984;43.508;1.504;2023-11-21T05:41:22;9.40;99.90
34766;DHT22;20984;43.508;1.504;2023-11-21T05:43:48;9.50;99.90
34766;DHT22;20984;43.508;1.504;2023-11-21T05:46:14;9.50;99.90
34766;DHT22;20984;43.508;1.504;2023-11-21T05:48:40;9.60;99.90
34766;DHT22;20984;43.508;1.504;2023-11-21T05:51:06;9.60;99.90
34766;DHT22;20984;43.508;1.504;2023-11-21T05:53:32;9.50;99.90
34766;DHT22;20984;43.508;1.504;2023-11-21T05:55:57;9.60;99.90
34766;DHT22;20984;43.508;1.504;2023-11-21T05:58:23;9.60;99.90
34766;DHT22;20984;43.508;1.504;2023-11-21T06:00:49;9.60;99.90
34766;DHT22;20984;43.508;1.504;2023-11-21T06:03:15;9.70;99.90
34766;DHT22;20984;43.508;1.504;2023-11-21T06:05:40;9.60;99.90
34766;DHT22;20984;43.508;1.504;2023-11-21T06:08:06;9.60;99.90
34766;DHT22;20984;43.508;1.504;2023-11-21T06:10:32;9.60;99.90
34766;DHT22;20984;43.508;1.504;2023-11-21T06:12:58;9.70;99.90
34766;DHT22;20984;43.508;1.504;2023-11-21T06:15:24;9.60;99.90
34766;DHT22;20984;43.508;1.504;2023-11-21T06:17:50;9.60;99.90
34766;DHT22;20984;43.508;1.504;2023-11-21T06:20:18;9.70;99.90
34766;DHT22;20984;43.508;1.504;2023-11-21T06:22:48;9.60;99.90
34766;DHT22;20984;43.508;1.504;2023-11-21T06:25:15;9.60;99.90
34766;DHT22;20984;43.508;1.504;2023-11-21T06:27:45;9.60;99.90
34766;DHT22;20984;43.508;1.504;2023-11-21T06:30:12;9.60;99.90
34766;DHT22;20984;43.508;1.504;2023-11-21T06:32:39;9.60;99.90
34766;DHT22;20984;43.508;1.504;2023-11-21T06:35:06;9.60;99.90
34766;DHT22;20984;43.508;1.504;2023-11-21T06:37:32;9.60;99.90
34766;DHT22;20984;43.508;1.504;2023-11-21T06:39:59;9.70;99.90
34766;DHT22;20984;43.508;1.504;2023-11-21T06:42:26;9.70;99.90
34766;DHT22;20984;43.508;1.504;2023-11-21T06:44:52;9.70;99.90
34766;DHT22;20984;43.508;1.504;2023-11-21T06:47:19;9.70;99.90
34766;DHT22;20984;43.508;1.504;2023-11-21T06:49:50;9.70;99.90
34766;DHT22;20984;43.508;1.504;2023-11-21T06:52:16;9.80;99.90
34766;DHT22;20984;43.508;1.504;2023-11-21T06:54:42;9.80;99.90
34766;DHT22;20984;43.508;1.504;2023-11-21T06:57:07;9.80;99.90
34766;DHT22;20984;43.508;1.504;2023-11-21T06:59:33;9.80;99.90
34766;DHT22;20984;43.508;1.504;2023-11-21T07:01:59;9.90;99.90
34766;DHT22;20984;43.508;1.504;2023-11-21T07:04:24;9.90;99.90
34766;DHT22;20984;43.508;1.504;2023-11-21T07:06:54;9.90;99.90
34766;DHT22;20984;43.508;1.504;2023-11-21T07:09:20;9.90;99.90
34766;DHT22;20984;43.508;1.504;2023-11-21T07:11:48;10.00;99.90
34766;DHT22;20984;43.508;1.504;2023-11-21T07:14:14;10.00;99.90
34766;DHT22;20984;43.508;1.504;2023-11-21T07:16:40;10.00;99.90
34766;DHT22;20984;43.508;1.504;2023-11-21T07:19:06;10.00;99.90
34766;DHT22;20984;43.508;1.504;2023-11-21T07:21:36;10.00;99.90
34766;DHT22;20984;43.508;1.504;2023-11-21T07:24:05;10.00;99.90
34766;DHT22;20984;43.508;1.504;2023-11-21T07:26:32;10.00;99.90
34766;DHT22;20984;43.508;1.504;2023-11-21T07:28:58;10.00;99.90
34766;DHT22;20984;43.508;1.504;2023-11-21T07:31:24;10.00;99.90
34766;DHT22;20984;43.508;1.504;2023-11-21T07:33:50;10.00;99.90
34766;DHT22;20984;43.508;1.504;2023-11-21T07:36:16;10.00;99.90
34766;DHT22;20984;43.508;1.504;2023-11-21T07:38:49;10.00;99.90
34766;DHT22;20984;43.508;1.504;2023-11-21T07:41:15;10.00;99.90
34766;DHT22;20984;43.508;1.504;2023-11-21T07:43:44;10.00;99.90
34766;DHT22;20984;43.508;1.504;2023-11-21T07:46:11;10.00;99.90
34766;DHT22;20984;43.508;1.504;2023-11-21T07:48:41;10.00;99.90
34766;DHT22;20984;43.508;1.504;2023-11-21T07:51:08;10.10;99.90
34766;DHT22;20984;43.508;1.504;2023-11-21T07:53:34;10.10;99.90
34766;DHT22;20984;43.508;1.504;2023-11-21T07:56:04;10.10;99.90
34766;DHT22;20984;43.508;1.504;2023-11-21T07:58:30;10.10;99.90
34766;DHT22;20984;43.508;1.504;2023-11-21T08:00:56;10.20;99.90
34766;DHT22;20984;43.508;1.504;2023-11-21T08:03:22;10.10;99.90
34766;DHT22;20984;43.508;1.504;2023-11-21T08:05:48;10.20;99.90
34766;DHT22;20984;43.508;1.504;2023-11-21T08:08:13;10.10;99.90
34766;DHT22;20984;43.508;1.504;2023-11-21T08:10:39;10.10;99.90
34766;DHT22;20984;43.508;1.504;2023-11-21T08:13:05;10.10;99.90
34766;DHT22;20984;43.508;1.504;2023-11-21T08:15:31;10.10;99.90
34766;DHT22;20984;43.508;1.504;2023-11-21T08:17:58;10.10;99.90
34766;DHT22;20984;43.508;1.504;2023-11-21T08:20:24;10.10;99.90
34766;DHT22;20984;43.508;1.504;2023-11-21T08:22:50;10.20;99.90
34766;DHT22;20984;43.508;1.504;2023-11-21T08:25:18;10.20;99.90
34766;DHT22;20984;43.508;1.504;2023-11-21T08:27:45;10.20;99.90
34766;DHT22;20984;43.508;1.504;2023-11-21T08:30:11;10.20;99.90
34766;DHT22;20984;43.508;1.504;2023-11-21T08:32:39;10.20;99.90
34766;DHT22;20984;43.508;1.504;2023-11-21T08:35:07;10.30;99.90
34766;DHT22;20984;43.508;1.504;2023-11-21T08:37:33;10.20;99.90
34766;DHT22;20984;43.508;1.504;2023-11-21T08:40:03;10.30;99.90
34766;DHT22;20984;43.508;1.504;2023-11-21T08:42:29;10.30;99.90
34766;DHT22;20984;43.508;1.504;2023-11-21T08:44:56;10.30;99.90
34766;DHT22;20984;43.508;1.504;2023-11-21T08:47:23;10.30;99.90
34766;DHT22;20984;43.508;1.504;2023-11-21T08:49:50;10.40;99.90
34766;DHT22;20984;43.508;1.504;2023-11-21T08:52:21;10.40;99.90
34766;DHT22;20984;43.508;1.504;2023-11-21T08:54:50;10.50;99.90
34766;DHT22;20984;43.508;1.504;2023-11-21T08:57:24;10.50;99.90
34766;DHT22;20984;43.508;1.504;2023-11-21T08:59:50;10.60;99.90
34766;DHT22;20984;43.508;1.504;2023-11-21T09:02:21;10.50;99.90
34766;DHT22;20984;43.508;1.504;2023-11-21T09:04:48;10.60;99.90
34766;DHT22;20984;43.508;1.504;2023-11-21T09:07:14;10.70;99.90
34766;DHT22;20984;43.508;1.504;2023-11-21T09:09:40;10.70;99.90
34766;DHT22;20984;43.508;1.504;2023-11-21T09:12:06;10.70;99.90
34766;DHT22;20984;43.508;1.504;2023-11-21T09:14:32;10.80;99.90
34766;DHT22;20984;43.508;1.504;2023-11-21T09:16:57;10.80;99.90
34766;DHT22;20984;43.508;1.504;2023-11-21T09:19:23;10.80;99.90
34766;DHT22;20984;43.508;1.504;2023-11-21T09:21:49;10.80;99.90
34766;DHT22;20984;43.508;1.504;2023-11-21T09:24:14;10.80;99.90
34766;DHT22;20984;43.508;1.504;2023-11-21T09:26:40;10.80;99.90
34766;DHT22;20984;43.508;1.504;2023-11-21T09:29:06;10.80;99.90
34766;DHT22;20984;43.508;1.504;2023-11-21T09:31:33;10.80;99.90
34766;DHT22;20984;43.508;1.504;2023-11-21T09:33:59;10.80;99.90
34766;DHT22;20984;43.508;1.504;2023-11-21T09:36:25;10.80;99.90
34766;DHT22;20984;43.508;1.504;2023-11-21T09:38:55;10.70;99.90
34766;DHT22;20984;43.508;1.504;2023-11-21T09:41:40;10.70;99.90
34766;DHT22;20984;43.508;1.504;2023-11-21T09:44:13;10.70;99.90
34766;DHT22;20984;43.508;1.504;2023-11-21T09:46:42;10.70;99.90
34766;DHT22;20984;43.508;1.504;2023-11-21T09:49:11;10.70;99.90
34766;DHT22;20984;43.508;1.504;2023-11-21T09:51:43;10.70;99.90
34766;DHT22;20984;43.508;1.504;2023-11-21T09:54:10;10.70;99.90
34766;DHT22;20984;43.508;1.504;2023-11-21T09:56:38;10.70;99.90
34766;DHT22;20984;43.508;1.504;2023-11-21T09:59:05;10.70;99.90
34766;DHT22;20984;43.508;1.504;2023-11-21T10:01:36;10.70;99.90
34766;DHT22;20984;43.508;1.504;2023-11-21T10:04:01;10.70;99.90
34766;DHT22;20984;43.508;1.504;2023-11-21T10:06:28;10.70;99.90
34766;DHT22;20984;43.508;1.504;2023-11-21T10:08:54;10.70;99.90
34766;DHT22;20984;43.508;1.504;2023-11-21T10:11:24;10.80;99.90
34766;DHT22;20984;43.508;1.504;2023-11-21T10:13:53;10.80;99.90
34766;DHT22;20984;43.508;1.504;2023-11-21T10:16:20;10.80;99.90
34766;DHT22;20984;43.508;1.504;2023-11-21T10:18:49;10.90;99.90
34766;DHT22;20984;43.508;1.504;2023-11-21T10:21:18;10.90;99.90
34766;DHT22;20984;43.508;1.504;2023-11-21T10:23:44;11.00;99.90
34766;DHT22;20984;43.508;1.504;2023-11-21T10:26:12;11.00;99.90
34766;DHT22;20984;43.508;1.504;2023-11-21T10:31:23;11.00;99.90
34766;DHT22;20984;43.508;1.504;2023-11-21T10:33:52;11.00;99.90
34766;DHT22;20984;43.508;1.504;2023-11-21T10:36:27;11.10;99.90
34766;DHT22;20984;43.508;1.504;2023-11-21T10:38:53;11.10;99.90
34766;DHT22;20984;43.508;1.504;2023-11-21T10:41:20;11.20;99.90
34766;DHT22;20984;43.508;1.504;2023-11-21T10:43:46;11.30;99.90
34766;DHT22;20984;43.508;1.504;2023-11-21T10:46:13;11.30;99.90
34766;DHT22;20984;43.508;1.504;2023-11-21T10:48:44;11.30;99.90
34766;DHT22;20984;43.508;1.504;2023-11-21T10:51:09;11.40;99.90
34766;DHT22;20984;43.508;1.504;2023-11-21T10:53:42;11.40;99.90
34766;DHT22;20984;43.508;1.504;2023-11-21T10:56:09;11.50;99.90
34766;DHT22;20984;43.508;1.504;2023-11-21T10:58:43;11.50;99.90
34766;DHT22;20984;43.508;1.504;2023-11-21T11:01:09;11.50;99.90
34766;DHT22;20984;43.508;1.504;2023-11-21T11:03:39;11.40;99.90
34766;DHT22;20984;43.508;1.504;2023-11-21T11:06:07;11.40;99.90
34766;DHT22;20984;43.508;1.504;2023-11-21T11:08:39;11.40;99.90
34766;DHT22;20984;43.508;1.504;2023-11-21T11:11:06;11.30;99.90
34766;DHT22;20984;43.508;1.504;2023-11-21T11:13:32;11.40;99.90
34766;DHT22;20984;43.508;1.504;2023-11-21T11:15:59;11.40;99.90
34766;DHT22;20984;43.508;1.504;2023-11-21T11:18:29;11.40;99.90
34766;DHT22;20984;43.508;1.504;2023-11-21T11:21:01;11.40;99.90
34766;DHT22;20984;43.508;1.504;2023-11-21T11:26:56;11.40;99.90
34766;DHT22;20984;43.508;1.504;2023-11-21T11:32:43;11.40;99.90
34766;DHT22;20984;43.508;1.504;2023-11-21T11:35:26;11.30;99.90
34766;DHT22;20984;43.508;1.504;2023-11-21T11:37:57;11.30;99.90
34766;DHT22;20984;43.508;1.504;2023-11-21T11:40:38;11.30;99.90
34766;DHT22;20984;43.508;1.504;2023-11-21T11:43:06;11.20;99.90
34766;DHT22;20984;43.508;1.504;2023-11-21T11:45:33;11.10;99.90
34766;DHT22;20984;43.508;1.504;2023-11-21T11:48:01;11.10;99.90
34766;DHT22;20984;43.508;1.504;2023-11-21T11:50:27;11.10;99.90
34766;DHT22;20984;43.508;1.504;2023-11-21T11:52:54;11.20;99.90
34766;DHT22;20984;43.508;1.504;2023-11-21T11:55:24;11.30;99.90
34766;DHT22;20984;43.508;1.504;2023-11-21T11:57:50;11.40;99.90
34766;DHT22;20984;43.508;1.504;2023-11-21T12:00:18;11.50;99.90
34766;DHT22;20984;43.508;1.504;2023-11-21T12:02:54;11.50;99.90
34766;DHT22;20984;43.508;1.504;2023-11-21T12:05:21;11.60;99.90
34766;DHT22;20984;43.508;1.504;2023-11-21T12:07:57;11.70;99.90
34766;DHT22;20984;43.508;1.504;2023-11-21T12:10:30;11.80;99.90
34766;DHT22;20984;43.508;1.504;2023-11-21T12:12:57;11.80;99.90
34766;DHT22;20984;43.508;1.504;2023-11-21T12:15:24;11.90;99.90
34766;DHT22;20984;43.508;1.504;2023-11-21T12:17:51;12.00;99.90
34766;DHT22;20984;43.508;1.504;2023-11-21T12:20:21;12.00;99.90
34766;DHT22;20984;43.508;1.504;2023-11-21T12:22:53;12.10;99.90
34766;DHT22;20984;43.508;1.504;2023-11-21T12:25:20;12.10;99.90
34766;DHT22;20984;43.508;1.504;2023-11-21T12:27:56;12.20;99.90
34766;DHT22;20984;43.508;1.504;2023-11-21T12:30:23;12.20;99.90
34766;DHT22;20984;43.508;1.504;2023-11-21T12:32:51;12.20;99.90
34766;DHT22;20984;43.508;1.504;2023-11-21T12:35:18;12.20;99.90
34766;DHT22;20984;43.508;1.504;2023-11-21T12:37:45;12.20;99.90
34766;DHT22;20984;43.508;1.504;2023-11-21T12:40:13;12.30;99.90
34766;DHT22;20984;43.508;1.504;2023-11-21T12:42:54;12.20;99.90
34766;DHT22;20984;43.508;1.504;2023-11-21T12:47:56;12.10;99.90
34766;DHT22;20984;43.508;1.504;2023-11-21T12:50:26;12.00;99.90
34766;DHT22;20984;43.508;1.504;2023-11-21T12:53:00;11.90;99.90
34766;DHT22;20984;43.508;1.504;2023-11-21T12:55:26;11.90;99.90
34766;DHT22;20984;43.508;1.504;2023-11-21T12:57:55;11.80;99.90
34766;DHT22;20984;43.508;1.504;2023-11-21T13:00:31;11.80;99.90
34766;DHT22;20984;43.508;1.504;2023-11-21T13:02:58;11.80;99.90
34766;DHT22;20984;43.508;1.504;2023-11-21T13:07:50;11.80;99.90
34766;DHT22;20984;43.508;1.504;2023-11-21T13:10:22;11.80;99.90
34766;DHT22;20984;43.508;1.504;2023-11-21T13:12:55;11.80;99.90
34766;DHT22;20984;43.508;1.504;2023-11-21T13:15:24;11.80;99.90
34766;DHT22;20984;43.508;1.504;2023-11-21T13:17:50;11.80;99.90
34766;DHT22;20984;43.508;1.504;2023-11-21T13:20:17;11.80;99.90
34766;DHT22;20984;43.508;1.504;2023-11-21T13:22:50;11.90;99.90
34766;DHT22;20984;43.508;1.504;2023-11-21T13:25:19;11.90;99.90
34766;DHT22;20984;43.508;1.504;2023-11-21T13:27:45;11.90;99.90
34766;DHT22;20984;43.508;1.504;2023-11-21T13:30:15;11.90;99.90
34766;DHT22;20984;43.508;1.504;2023-11-21T13:32:45;11.90;99.90
34766;DHT22;20984;43.508;1.504;2023-11-21T13:35:17;11.80;99.90
34766;DHT22;20984;43.508;1.504;2023-11-21T13:37:50;11.70;99.90
34766;DHT22;20984;43.508;1.504;2023-11-21T13:40:22;11.60;99.90
34766;DHT22;20984;43.508;1.504;2023-11-21T13:42:55;11.60;99.90
34766;DHT22;20984;43.508;1.504;2023-11-21T13:45:24;11.50;99.90
34766;DHT22;20984;43.508;1.504;2023-11-21T13:47:52;11.40;99.90
34766;DHT22;20984;43.508;1.504;2023-11-21T13:50:20;11.40;99.90
34766;DHT22;20984;43.508;1.504;2023-11-21T13:52:54;11.50;99.90
34766;DHT22;20984;43.508;1.504;2023-11-21T13:55:20;11.50;99.90
34766;DHT22;20984;43.508;1.504;2023-11-21T13:57:47;11.50;99.90
34766;DHT22;20984;43.508;1.504;2023-11-21T14:00:17;11.60;99.90
34766;DHT22;20984;43.508;1.504;2023-11-21T14:03:02;11.70;99.90
34766;DHT22;20984;43.508;1.504;2023-11-21T14:05:27;11.70;99.90
34766;DHT22;20984;43.508;1.504;2023-11-21T14:07:57;11.70;99.90
34766;DHT22;20984;43.508;1.504;2023-11-21T14:10:30;11.80;99.90
34766;DHT22;20984;43.508;1.504;2023-11-21T14:13:19;11.80;99.90
34766;DHT22;20984;43.508;1.504;2023-11-21T14:15:49;11.80;99.90
34766;DHT22;20984;43.508;1.504;2023-11-21T14:18:17;11.80;99.90
34766;DHT22;20984;43.508;1.504;2023-11-21T14:20:51;11.80;99.90
34766;DHT22;20984;43.508;1.504;2023-11-21T14:23:17;11.90;99.90
34766;DHT22;20984;43.508;1.504;2023-11-21T14:25:43;11.90;99.90
34766;DHT22;20984;43.508;1.504;2023-11-21T14:28:09;12.00;99.90
34766;DHT22;20984;43.508;1.504;2023-11-21T14:30:38;11.90;99.90
34766;DHT22;20984;43.508;1.504;2023-11-21T14:33:05;11.90;99.90
34766;DHT22;20984;43.508;1.504;2023-11-21T14:35:32;11.90;99.90
34766;DHT22;20984;43.508;1.504;2023-11-21T14:37:58;11.90;99.90
34766;DHT22;20984;43.508;1.504;2023-11-21T14:40:26;11.90;99.90
34766;DHT22;20984;43.508;1.504;2023-11-21T14:42:53;11.90;99.90
34766;DHT22;20984;43.508;1.504;2023-11-21T14:45:20;11.90;99.90
34766;DHT22;20984;43.508;1.504;2023-11-21T14:47:48;11.90;99.90
34766;DHT22;20984;43.508;1.504;2023-11-21T14:50:37;11.90;99.90
34766;DHT22;20984;43.508;1.504;2023-11-21T14:53:09;11.90;99.90
34766;DHT22;20984;43.508;1.504;2023-11-21T14:55:36;11.90;99.90
34766;DHT22;20984;43.508;1.504;2023-11-21T14:58:19;11.90;99.90
34766;DHT22;20984;43.508;1.504;2023-11-21T15:00:55;11.90;99.90
34766;DHT22;20984;43.508;1.504;2023-11-21T15:03:27;11.90;99.90
34766;DHT22;20984;43.508;1.504;2023-11-21T15:05:59;11.90;99.90
34766;DHT22;20984;43.508;1.504;2023-11-21T15:08:35;11.90;99.90
34766;DHT22;20984;43.508;1.504;2023-11-21T15:11:01;11.90;99.90
34766;DHT22;20984;43.508;1.504;2023-11-21T15:13:32;11.90;99.90
34766;DHT22;20984;43.508;1.504;2023-11-21T15:15:58;11.90;99.90
34766;DHT22;20984;43.508;1.504;2023-11-21T15:18:33;11.90;99.90
34766;DHT22;20984;43.508;1.504;2023-11-21T15:20:59;11.90;99.90
34766;DHT22;20984;43.508;1.504;2023-11-21T15:23:25;11.90;99.90
34766;DHT22;20984;43.508;1.504;2023-11-21T15:25:53;11.90;99.90
34766;DHT22;20984;43.508;1.504;2023-11-21T15:28:19;11.80;99.90
34766;DHT22;20984;43.508;1.504;2023-11-21T15:30:45;11.80;99.90
34766;DHT22;20984;43.508;1.504;2023-11-21T15:33:13;11.80;99.90
34766;DHT22;20984;43.508;1.504;2023-11-21T15:35:39;11.80;99.90
34766;DHT22;20984;43.508;1.504;2023-11-21T15:38:07;11.80;99.90
34766;DHT22;20984;43.508;1.504;2023-11-21T15:40:33;11.80;99.90
34766;DHT22;20984;43.508;1.504;2023-11-21T15:42:59;11.80;99.90
34766;DHT22;20984;43.508;1.504;2023-11-21T15:45:25;11.70;99.90
34766;DHT22;20984;43.508;1.504;2023-11-21T15:47:51;11.70;99.90
34766;DHT22;20984;43.508;1.504;2023-11-21T15:50:19;11.70;99.90
34766;DHT22;20984;43.508;1.504;2023-11-21T15:52:44;11.70;99.90